sensor_id;sensor_type;location;lat;lon;timestamp;temperature;humidity
1578;DHT22;57623;53.608;10.004;2023-07-02T00:00:31;15.40;99.90
1578;DHT22;57623;53.608;10.004;2023-07-02T00:03:00;15.40;99.90
1578;DHT22;57623;53.608;10.004;2023-07-02T00:05:30;15.40;99.90
1578;DHT22;57623;53.608;10.004;2023-07-02T00:07:58;15.30;99.90
1578;DHT22;57623;53.608;10.004;2023-07-02T00:10:27;15.30;99.90
1578;DHT22;57623;53.608;10.004;2023-07-02T00:12:55;15.30;99.90
1578;DHT22;57623;53.608;10.004;2023-07-02T00:15:23;15.30;99.90
1578;DHT22;57623;53.608;10.004;2023-07-02T00:17:51;15.30;99.90
1578;DHT22;57623;53.608;10.004;2023-07-02T00:20:19;15.30;99.90
1578;DHT22;57623;53.608;10.004;2023-07-02T00:22:48;15.30;99.90
1578;DHT22;57623;53.608;10.004;2023-07-02T00:25:16;15.30;99.90
1578;DHT22;57623;53.608;10.004;2023-07-02T00:27:46;15.30;99.90
1578;DHT22;57623;53.608;10.004;2023-07-02T00:30:14;15.30;99.90
1578;DHT22;57623;53.608;10.004;2023-07-02T00:32:42;15.30;99.90
1578;DHT22;57623;53.608;10.004;2023-07-02T00:35:10;15.30;99.90
1578;DHT22;57623;53.608;10.004;2023-07-02T00:37:38;15.30;99.90
1578;DHT22;57623;53.608;10.004;2023-07-02T00:40:07;15.30;99.90
1578;DHT22;57623;53.608;10.004;2023-07-02T00:42:36;15.40;99.90
1578;DHT22;57623;53.608;10.004;2023-07-02T00:45:06;15.40;99.90
1578;DHT22;57623;53.608;10.004;2023-07-02T00:47:35;15.40;99.90
1578;DHT22;57623;53.608;10.004;2023-07-02T00:50:04;15.40;99.90
1578;DHT22;57623;53.608;10.004;2023-07-02T00:52:32;15.40;99.90
1578;DHT22;57623;53.608;10.004;2023-07-02T00:55:00;15.50;99.90
1578;DHT22;57623;53.608;10.004;2023-07-02T00:57:28;15.50;99.90
1578;DHT22;57623;53.608;10.004;2023-07-02T00:59:57;15.50;99.90
1578;DHT22;57623;53.608;10.004;2023-07-02T01:02:29;15.50;99.90
1578;DHT22;57623;53.608;10.004;2023-07-02T01:04:57;15.50;99.90
1578;DHT22;57623;53.608;10.004;2023-07-02T01:07:27;15.50;99.90
1578;DHT22;57623;53.608;10.004;2023-07-02T01:09:55;15.50;99.90
1578;DHT22;57623;53.608;10.004;2023-07-02T01:12:24;15.50;99.90
1578;DHT22;57623;53.608;10.004;2023-07-02T01:14:54;15.50;99.90
1578;DHT22;57623;53.608;10.004;2023-07-02T01:17:25;15.50;99.90
1578;DHT22;57623;53.608;10.004;2023-07-02T01:19:57;15.50;99.90
1578;DHT22;57623;53.608;10.004;2023-07-02T01:22:28;15.50;99.90
1578;DHT22;57623;53.608;10.004;2023-07-02T01:24:57;15.50;99.90
1578;DHT22;57623;53.608;10.004;2023-07-02T01:27:28;15.50;99.90
1578;DHT22;57623;53.608;10.004;2023-07-02T01:29:56;15.50;99.90
1578;DHT22;57623;53.608;10.004;2023-07-02T01:32:24;15.50;99.90
1578;DHT22;57623;53.608;10.004;2023-07-02T01:34:52;15.40;99.90
1578;DHT22;57623;53.608;10.004;2023-07-02T01:37:22;15.40;99.90
1578;DHT22;57623;53.608;10.004;2023-07-02T01:39:50;15.40;99.90
1578;DHT22;57623;53.608;10.004;2023-07-02T01:42:18;15.40;99.90
1578;DHT22;57623;53.608;10.004;2023-07-02T01:44:48;15.40;99.90
1578;DHT22;57623;53.608;10.004;2023-07-02T01:47:18;15.50;99.90
1578;DHT22;57623;53.608;10.004;2023-07-02T01:49:47;15.50;99.90
1578;DHT22;57623;53.608;10.004;2023-07-02T01:52:15;15.50;99.90
1578;DHT22;57623;53.608;10.004;2023-07-02T01:54:45;15.50;99.90
1578;DHT22;57623;53.608;10.004;2023-07-02T01:57:13;15.50;99.90
1578;DHT22;57623;53.608;10.004;2023-07-02T01:59:41;15.50;99.90
1578;DHT22;57623;53.608;10.004;2023-07-02T02:02:10;15.50;99.90
1578;DHT22;57623;53.608;10.004;2023-07-02T02:04:38;15.50;99.90
1578;DHT22;57623;53.608;10.004;2023-07-02T02:07:06;15.50;99.90
1578;DHT22;57623;53.608;10.004;2023-07-02T02:09:34;15.50;99.90
1578;DHT22;57623;53.608;10.004;2023-07-02T02:12:04;15.50;99.90
1578;DHT22;57623;53.608;10.004;2023-07-02T02:14:32;15.50;99.90
1578;DHT22;57623;53.608;10.004;2023-07-02T02:17:00;15.50;99.90
1578;DHT22;57623;53.608;10.004;2023-07-02T02:19:28;15.40;99.90
1578;DHT22;57623;53.608;10.004;2023-07-02T02:21:56;15.40;99.90
1578;DHT22;57623;53.608;10.004;2023-07-02T02:24:24;15.40;99.90
1578;DHT22;57623;53.608;10.004;2023-07-02T02:26:52;15.40;99.90
1578;DHT22;57623;53.608;10.004;2023-07-02T02:29:21;15.30;99.90
1578;DHT22;57623;53.608;10.004;2023-07-02T02:31:49;15.30;99.90
1578;DHT22;57623;53.608;10.004;2023-07-02T02:34:17;15.30;99.90
1578;DHT22;57623;53.608;10.004;2023-07-02T02:36:45;15.30;99.90
1578;DHT22;57623;53.608;10.004;2023-07-02T02:39:14;15.30;99.90
1578;DHT22;57623;53.608;10.004;2023-07-02T02:41:42;15.30;99.90
1578;DHT22;57623;53.608;10.004;2023-07-02T02:44:10;15.30;99.90
1578;DHT22;57623;53.608;10.004;2023-07-02T02:46:39;15.30;99.90
1578;DHT22;57623;53.608;10.004;2023-07-02T02:49:07;15.30;99.90
1578;DHT22;57623;53.608;10.004;2023-07-02T02:51:35;15.30;99.90
1578;DHT22;57623;53.608;10.004;2023-07-02T02:54:03;15.20;99.90
1578;DHT22;57623;53.608;10.004;2023-07-02T02:56:31;15.20;99.90
1578;DHT22;57623;53.608;10.004;2023-07-02T02:58:59;15.20;99.90
1578;DHT22;57623;53.608;10.004;2023-07-02T03:01:28;15.20;99.90
1578;DHT22;57623;53.608;10.004;2023-07-02T03:03:59;15.20;99.90
1578;DHT22;57623;53.608;10.004;2023-07-02T03:06:27;15.20;99.90
1578;DHT22;57623;53.608;10.004;2023-07-02T03:08:55;15.20;99.90
1578;DHT22;57623;53.608;10.004;2023-07-02T03:11:23;15.20;99.90
1578;DHT22;57623;53.608;10.004;2023-07-02T03:13:51;15.10;99.90
1578;DHT22;57623;53.608;10.004;2023-07-02T03:16:19;15.10;99.90
1578;DHT22;57623;53.608;10.004;2023-07-02T03:18:48;15.10;99.90
1578;DHT22;57623;53.608;10.004;2023-07-02T03:21:17;15.10;99.90
1578;DHT22;57623;53.608;10.004;2023-07-02T03:23:45;15.10;99.90
1578;DHT22;57623;53.608;10.004;2023-07-02T03:26:13;15.10;99.90
1578;DHT22;57623;53.608;10.004;2023-07-02T03:28:41;15.10;99.90
1578;DHT22;57623;53.608;10.004;2023-07-02T03:31:09;15.00;99.90
1578;DHT22;57623;53.608;10.004;2023-07-02T03:33:37;15.00;99.90
1578;DHT22;57623;53.608;10.004;2023-07-02T03:36:05;15.00;99.90
1578;DHT22;57623;53.608;10.004;2023-07-02T03:38:35;15.00;99.90
1578;DHT22;57623;53.608;10.004;2023-07-02T03:41:03;15.00;99.90
1578;DHT22;57623;53.608;10.004;2023-07-02T03:43:31;15.10;99.90
1578;DHT22;57623;53.608;10.004;2023-07-02T03:45:59;15.10;99.90
1578;DHT22;57623;53.608;10.004;2023-07-02T03:48:27;15.10;99.90
1578;DHT22;57623;53.608;10.004;2023-07-02T03:50:55;15.10;99.90
1578;DHT22;57623;53.608;10.004;2023-07-02T03:53:23;15.10;99.90
1578;DHT22;57623;53.608;10.004;2023-07-02T03:55:53;15.10;99.90
1578;DHT22;57623;53.608;10.004;2023-07-02T03:58:21;15.10;99.90
1578;DHT22;57623;53.608;10.004;2023-07-02T04:00:49;15.10;99.90
1578;DHT22;57623;53.608;10.004;2023-07-02T04:03:17;15.10;99.90
1578;DHT22;57623;53.608;10.004;2023-07-02T04:05:45;15.10;99.90
1578;DHT22;57623;53.608;10.004;2023-07-02T04:08:15;15.10;99.90
1578;DHT22;57623;53.608;10.004;2023-07-02T04:10:43;15.10;99.90
1578;DHT22;57623;53.608;10.004;2023-07-02T04:13:13;15.10;99.90
1578;DHT22;57623;53.608;10.004;2023-07-02T04:15:41;15.10;99.90
1578;DHT22;57623;53.608;10.004;2023-07-02T04:18:09;15.10;99.90
1578;DHT22;57623;53.608;10.004;2023-07-02T04:20:37;15.20;99.90
1578;DHT22;57623;53.608;10.004;2023-07-02T04:23:05;15.20;99.90
1578;DHT22;57623;53.608;10.004;2023-07-02T04:25:33;15.30;99.90
1578;DHT22;57623;53.608;10.004;2023-07-02T04:28:22;15.30;99.90
1578;DHT22;57623;53.608;10.004;2023-07-02T04:30:50;15.30;99.90
1578;DHT22;57623;53.608;10.004;2023-07-02T04:33:19;15.30;99.90
1578;DHT22;57623;53.608;10.004;2023-07-02T04:35:48;15.30;99.90
1578;DHT22;57623;53.608;10.004;2023-07-02T04:38:16;15.30;99.90
1578;DHT22;57623;53.608;10.004;2023-07-02T04:40:44;15.30;99.90
1578;DHT22;57623;53.608;10.004;2023-07-02T04:43:13;15.20;99.90
1578;DHT22;57623;53.608;10.004;2023-07-02T04:45:46;15.20;99.90
1578;DHT22;57623;53.608;10.004;2023-07-02T04:48:15;15.30;99.90
1578;DHT22;57623;53.608;10.004;2023-07-02T04:50:43;15.30;99.90
1578;DHT22;57623;53.608;10.004;2023-07-02T04:53:11;15.30;99.90
1578;DHT22;57623;53.608;10.004;2023-07-02T04:55:39;15.30;99.90
1578;DHT22;57623;53.608;10.004;2023-07-02T04:58:07;15.40;99.90
1578;DHT22;57623;53.608;10.004;2023-07-02T05:00:35;15.40;99.90
1578;DHT22;57623;53.608;10.004;2023-07-02T05:03:05;15.40;99.90
1578;DHT22;57623;53.608;10.004;2023-07-02T05:05:33;15.50;99.90
1578;DHT22;57623;53.608;10.004;2023-07-02T05:08:01;15.50;99.90
1578;DHT22;57623;53.608;10.004;2023-07-02T05:10:31;15.50;99.90
1578;DHT22;57623;53.608;10.004;2023-07-02T05:12:59;15.50;99.90
1578;DHT22;57623;53.608;10.004;2023-07-02T05:15:27;15.60;99.90
1578;DHT22;57623;53.608;10.004;2023-07-02T05:17:55;15.60;99.90
1578;DHT22;57623;53.608;10.004;2023-07-02T05:20:25;15.60;99.90
1578;DHT22;57623;53.608;10.004;2023-07-02T05:22:53;15.70;99.90
1578;DHT22;57623;53.608;10.004;2023-07-02T05:25:21;15.70;99.90
1578;DHT22;57623;53.608;10.004;2023-07-02T05:27:49;15.70;99.90
1578;DHT22;57623;53.608;10.004;2023-07-02T05:30:17;15.70;99.90
1578;DHT22;57623;53.608;10.004;2023-07-02T05:32:45;15.80;99.90
1578;DHT22;57623;53.608;10.004;2023-07-02T05:35:13;15.80;99.90
1578;DHT22;57623;53.608;10.004;2023-07-02T05:37:42;15.80;99.90
1578;DHT22;57623;53.608;10.004;2023-07-02T05:40:12;15.90;99.90
1578;DHT22;57623;53.608;10.004;2023-07-02T05:42:43;15.90;99.90
1578;DHT22;57623;53.608;10.004;2023-07-02T05:45:11;15.90;99.90
1578;DHT22;57623;53.608;10.004;2023-07-02T05:47:39;16.00;99.90
1578;DHT22;57623;53.608;10.004;2023-07-02T05:50:08;15.90;99.90
1578;DHT22;57623;53.608;10.004;2023-07-02T05:52:36;15.90;99.90
1578;DHT22;57623;53.608;10.004;2023-07-02T05:55:08;16.00;99.90
1578;DHT22;57623;53.608;10.004;2023-07-02T05:57:37;16.10;99.90
1578;DHT22;57623;53.608;10.004;2023-07-02T06:00:06;16.10;99.90
1578;DHT22;57623;53.608;10.004;2023-07-02T06:02:34;16.10;99.90
1578;DHT22;57623;53.608;10.004;2023-07-02T06:05:03;16.10;99.90
1578;DHT22;57623;53.608;10.004;2023-07-02T06:07:31;16.10;99.90
1578;DHT22;57623;53.608;10.004;2023-07-02T06:09:59;16.30;99.90
1578;DHT22;57623;53.608;10.004;2023-07-02T06:12:28;16.30;99.90
1578;DHT22;57623;53.608;10.004;2023-07-02T06:14:56;16.30;99.90
1578;DHT22;57623;53.608;10.004;2023-07-02T06:17:24;16.40;99.90
1578;DHT22;57623;53.608;10.004;2023-07-02T06:19:52;16.40;99.90
1578;DHT22;57623;53.608;10.004;2023-07-02T06:22:20;16.40;99.90
1578;DHT22;57623;53.608;10.004;2023-07-02T06:24:48;16.50;99.90
1578;DHT22;57623;53.608;10.004;2023-07-02T06:27:16;16.50;99.90
1578;DHT22;57623;53.608;10.004;2023-07-02T06:29:45;16.50;99.90
1578;DHT22;57623;53.608;10.004;2023-07-02T06:32:13;16.50;99.90
1578;DHT22;57623;53.608;10.004;2023-07-02T06:34:41;16.60;99.90
1578;DHT22;57623;53.608;10.004;2023-07-02T06:37:09;16.60;99.90
1578;DHT22;57623;53.608;10.004;2023-07-02T06:39:37;16.70;99.90
1578;DHT22;57623;53.608;10.004;2023-07-02T06:42:05;16.70;99.90
1578;DHT22;57623;53.608;10.004;2023-07-02T06:44:33;16.70;99.90
1578;DHT22;57623;53.608;10.004;2023-07-02T06:47:03;16.70;99.90
1578;DHT22;57623;53.608;10.004;2023-07-02T06:49:31;16.70;99.90
1578;DHT22;57623;53.608;10.004;2023-07-02T06:51:59;16.80;99.90
1578;DHT22;57623;53.608;10.004;2023-07-02T06:54:28;16.90;99.90
1578;DHT22;57623;53.608;10.004;2023-07-02T06:56:56;17.00;99.90
1578;DHT22;57623;53.608;10.004;2023-07-02T06:59:24;17.00;99.90
1578;DHT22;57623;53.608;10.004;2023-07-02T07:01:52;17.00;99.90
1578;DHT22;57623;53.608;10.004;2023-07-02T07:04:22;17.10;99.90
1578;DHT22;57623;53.608;10.004;2023-07-02T07:06:50;17.10;99.90
1578;DHT22;57623;53.608;10.004;2023-07-02T07:09:18;17.10;99.90
1578;DHT22;57623;53.608;10.004;2023-07-02T07:11:46;17.20;99.90
1578;DHT22;57623;53.608;10.004;2023-07-02T07:14:14;17.20;99.90
1578;DHT22;57623;53.608;10.004;2023-07-02T07:16:42;17.30;99.90
1578;DHT22;57623;53.608;10.004;2023-07-02T07:19:10;17.40;99.90
1578;DHT22;57623;53.608;10.004;2023-07-02T07:21:39;17.40;99.90
1578;DHT22;57623;53.608;10.004;2023-07-02T07:24:07;17.40;99.90
1578;DHT22;57623;53.608;10.004;2023-07-02T07:26:35;17.40;99.90
1578;DHT22;57623;53.608;10.004;2023-07-02T07:29:04;17.30;99.90
1578;DHT22;57623;53.608;10.004;2023-07-02T07:31:32;17.10;99.90
1578;DHT22;57623;53.608;10.004;2023-07-02T07:34:00;17.10;99.90
1578;DHT22;57623;53.608;10.004;2023-07-02T07:36:28;17.20;99.90
1578;DHT22;57623;53.608;10.004;2023-07-02T07:38:57;17.20;99.90
1578;DHT22;57623;53.608;10.004;2023-07-02T07:41:26;17.30;99.90
1578;DHT22;57623;53.608;10.004;2023-07-02T07:43:54;17.30;99.90
1578;DHT22;57623;53.608;10.004;2023-07-02T07:46:21;17.30;99.90
1578;DHT22;57623;53.608;10.004;2023-07-02T07:48:51;17.40;99.90
1578;DHT22;57623;53.608;10.004;2023-07-02T07:51:19;17.40;99.90
1578;DHT22;57623;53.608;10.004;2023-07-02T07:53:47;17.50;99.90
1578;DHT22;57623;53.608;10.004;2023-07-02T07:56:16;17.40;99.90
1578;DHT22;57623;53.608;10.004;2023-07-02T07:58:44;17.40;99.90
1578;DHT22;57623;53.608;10.004;2023-07-02T08:01:12;17.40;99.90
1578;DHT22;57623;53.608;10.004;2023-07-02T08:03:40;17.40;99.90
1578;DHT22;57623;53.608;10.004;2023-07-02T08:06:08;17.40;99.90
1578;DHT22;57623;53.608;10.004;2023-07-02T08:08:36;17.50;99.90
1578;DHT22;57623;53.608;10.004;2023-07-02T08:11:04;17.50;99.90
1578;DHT22;57623;53.608;10.004;2023-07-02T08:13:34;17.60;99.90
1578;DHT22;57623;53.608;10.004;2023-07-02T08:16:02;17.60;99.90
1578;DHT22;57623;53.608;10.004;2023-07-02T08:18:30;17.70;99.90
1578;DHT22;57623;53.608;10.004;2023-07-02T08:20:58;17.90;99.90
1578;DHT22;57623;53.608;10.004;2023-07-02T08:23:26;18.00;99.90
1578;DHT22;57623;53.608;10.004;2023-07-02T08:25:54;18.00;99.90
1578;DHT22;57623;53.608;10.004;2023-07-02T08:28:22;18.00;99.90
1578;DHT22;57623;53.608;10.004;2023-07-02T08:30:51;17.90;99.90
1578;DHT22;57623;53.608;10.004;2023-07-02T08:33:19;17.80;99.90
1578;DHT22;57623;53.608;10.004;2023-07-02T08:35:47;17.90;99.90
1578;DHT22;57623;53.608;10.004;2023-07-02T08:38:15;17.80;99.90
1578;DHT22;57623;53.608;10.004;2023-07-02T08:40:43;17.70;99.90
1578;DHT22;57623;53.608;10.004;2023-07-02T08:43:11;17.60;99.90
1578;DHT22;57623;53.608;10.004;2023-07-02T08:45:40;17.70;99.90
1578;DHT22;57623;53.608;10.004;2023-07-02T08:48:11;17.70;99.90
1578;DHT22;57623;53.608;10.004;2023-07-02T08:50:39;17.70;99.90
1578;DHT22;57623;53.608;10.004;2023-07-02T08:53:07;17.80;99.90
1578;DHT22;57623;53.608;10.004;2023-07-02T08:55:35;17.90;99.90
1578;DHT22;57623;53.608;10.004;2023-07-02T08:58:03;18.10;99.90
1578;DHT22;57623;53.608;10.004;2023-07-02T09:00:31;18.20;99.90
1578;DHT22;57623;53.608;10.004;2023-07-02T09:03:13;18.20;99.90
1578;DHT22;57623;53.608;10.004;2023-07-02T09:05:49;18.30;99.90
1578;DHT22;57623;53.608;10.004;2023-07-02T09:08:24;18.50;99.90
1578;DHT22;57623;53.608;10.004;2023-07-02T09:10:52;18.60;99.90
1578;DHT22;57623;53.608;10.004;2023-07-02T09:13:20;18.70;99.90
1578;DHT22;57623;53.608;10.004;2023-07-02T09:15:48;18.60;99.90
1578;DHT22;57623;53.608;10.004;2023-07-02T09:18:19;18.30;99.90
1578;DHT22;57623;53.608;10.004;2023-07-02T09:20:50;18.20;99.90
1578;DHT22;57623;53.608;10.004;2023-07-02T09:23:18;18.00;99.90
1578;DHT22;57623;53.608;10.004;2023-07-02T09:25:46;17.80;99.90
1578;DHT22;57623;53.608;10.004;2023-07-02T09:28:16;17.70;99.90
1578;DHT22;57623;53.608;10.004;2023-07-02T09:30:51;17.60;99.90
1578;DHT22;57623;53.608;10.004;2023-07-02T09:33:23;17.40;99.90
1578;DHT22;57623;53.608;10.004;2023-07-02T09:35:51;17.10;99.90
1578;DHT22;57623;53.608;10.004;2023-07-02T09:38:20;16.80;99.90
1578;DHT22;57623;53.608;10.004;2023-07-02T09:40:50;16.60;99.90
1578;DHT22;57623;53.608;10.004;2023-07-02T09:43:19;16.50;99.90
1578;DHT22;57623;53.608;10.004;2023-07-02T09:45:48;16.60;99.90
1578;DHT22;57623;53.608;10.004;2023-07-02T09:48:17;16.70;99.90
1578;DHT22;57623;53.608;10.004;2023-07-02T09:50:50;16.80;99.90
1578;DHT22;57623;53.608;10.004;2023-07-02T09:53:18;16.80;99.90
1578;DHT22;57623;53.608;10.004;2023-07-02T09:55:46;16.90;99.90
1578;DHT22;57623;53.608;10.004;2023-07-02T09:58:16;17.10;99.90
1578;DHT22;57623;53.608;10.004;2023-07-02T10:00:44;17.30;99.90
1578;DHT22;57623;53.608;10.004;2023-07-02T10:03:12;17.60;99.90
1578;DHT22;57623;53.608;10.004;2023-07-02T10:05:40;17.80;99.90
1578;DHT22;57623;53.608;10.004;2023-07-02T10:08:14;17.90;99.90
1578;DHT22;57623;53.608;10.004;2023-07-02T10:10:44;18.00;99.90
1578;DHT22;57623;53.608;10.004;2023-07-02T10:13:13;18.00;99.90
1578;DHT22;57623;53.608;10.004;2023-07-02T10:15:41;18.20;99.90
1578;DHT22;57623;53.608;10.004;2023-07-02T10:18:09;18.30;99.90
1578;DHT22;57623;53.608;10.004;2023-07-02T10:20:38;18.50;99.90
1578;DHT22;57623;53.608;10.004;2023-07-02T10:23:08;18.80;99.90
1578;DHT22;57623;53.608;10.004;2023-07-02T10:25:38;18.90;99.90
1578;DHT22;57623;53.608;10.004;2023-07-02T10:28:17;18.90;99.90
1578;DHT22;57623;53.608;10.004;2023-07-02T10:30:46;19.10;99.90
1578;DHT22;57623;53.608;10.004;2023-07-02T10:33:15;19.10;99.90
1578;DHT22;57623;53.608;10.004;2023-07-02T10:35:44;19.20;99.90
1578;DHT22;57623;53.608;10.004;2023-07-02T10:38:14;19.20;99.90
1578;DHT22;57623;53.608;10.004;2023-07-02T10:40:44;19.10;99.90
1578;DHT22;57623;53.608;10.004;2023-07-02T10:43:12;18.90;99.90
1578;DHT22;57623;53.608;10.004;2023-07-02T10:45:40;18.80;99.90
1578;DHT22;57623;53.608;10.004;2023-07-02T10:48:09;18.80;99.90
1578;DHT22;57623;53.608;10.004;2023-07-02T10:50:37;18.80;99.90
1578;DHT22;57623;53.608;10.004;2023-07-02T10:53:05;18.80;99.90
1578;DHT22;57623;53.608;10.004;2023-07-02T10:55:33;19.00;99.90
1578;DHT22;57623;53.608;10.004;2023-07-02T10:58:07;19.00;99.90
1578;DHT22;57623;53.608;10.004;2023-07-02T11:00:43;19.00;99.90
1578;DHT22;57623;53.608;10.004;2023-07-02T11:03:18;18.90;99.90
1578;DHT22;57623;53.608;10.004;2023-07-02T11:05:47;18.80;99.90
1578;DHT22;57623;53.608;10.004;2023-07-02T11:08:17;18.90;99.90
1578;DHT22;57623;53.608;10.004;2023-07-02T11:10:45;18.80;99.90
1578;DHT22;57623;53.608;10.004;2023-07-02T11:13:15;18.90;99.90
1578;DHT22;57623;53.608;10.004;2023-07-02T11:15:44;19.00;99.90
1578;DHT22;57623;53.608;10.004;2023-07-02T11:18:15;19.10;99.90
1578;DHT22;57623;53.608;10.004;2023-07-02T11:20:45;19.20;99.90
1578;DHT22;57623;53.608;10.004;2023-07-02T11:23:20;19.20;99.90
1578;DHT22;57623;53.608;10.004;2023-07-02T11:25:56;19.30;99.90
1578;DHT22;57623;53.608;10.004;2023-07-02T11:28:27;19.30;99.90
1578;DHT22;57623;53.608;10.004;2023-07-02T11:30:56;19.20;99.90
1578;DHT22;57623;53.608;10.004;2023-07-02T11:33:33;19.00;99.90
1578;DHT22;57623;53.608;10.004;2023-07-02T11:36:02;19.00;99.90
1578;DHT22;57623;53.608;10.004;2023-07-02T11:38:30;19.10;99.90
1578;DHT22;57623;53.608;10.004;2023-07-02T11:40:58;19.20;99.90
1578;DHT22;57623;53.608;10.004;2023-07-02T11:43:27;19.40;99.90
1578;DHT22;57623;53.608;10.004;2023-07-02T11:45:55;19.60;99.90
1578;DHT22;57623;53.608;10.004;2023-07-02T11:48:23;19.80;99.90
1578;DHT22;57623;53.608;10.004;2023-07-02T11:50:51;19.90;99.90
1578;DHT22;57623;53.608;10.004;2023-07-02T11:53:19;20.00;99.90
1578;DHT22;57623;53.608;10.004;2023-07-02T11:55:47;20.00;99.90
1578;DHT22;57623;53.608;10.004;2023-07-02T11:58:16;19.80;99.90
1578;DHT22;57623;53.608;10.004;2023-07-02T12:00:45;19.60;99.90
1578;DHT22;57623;53.608;10.004;2023-07-02T12:03:13;19.50;99.90
1578;DHT22;57623;53.608;10.004;2023-07-02T12:05:41;19.50;99.90
1578;DHT22;57623;53.608;10.004;2023-07-02T12:08:09;19.50;99.90
1578;DHT22;57623;53.608;10.004;2023-07-02T12:10:37;19.30;99.90
1578;DHT22;57623;53.608;10.004;2023-07-02T12:13:05;19.20;99.90
1578;DHT22;57623;53.608;10.004;2023-07-02T12:15:33;19.00;99.90
1578;DHT22;57623;53.608;10.004;2023-07-02T12:18:03;19.00;99.90
1578;DHT22;57623;53.608;10.004;2023-07-02T12:20:31;19.00;99.90
1578;DHT22;57623;53.608;10.004;2023-07-02T12:22:59;19.00;99.90
1578;DHT22;57623;53.608;10.004;2023-07-02T12:25:27;19.20;99.90
1578;DHT22;57623;53.608;10.004;2023-07-02T12:27:55;19.20;99.90
1578;DHT22;57623;53.608;10.004;2023-07-02T12:30:23;19.10;99.90
1578;DHT22;57623;53.608;10.004;2023-07-02T12:32:51;19.30;99.90
1578;DHT22;57623;53.608;10.004;2023-07-02T12:35:20;19.60;99.90
1578;DHT22;57623;53.608;10.004;2023-07-02T12:37:50;19.80;99.90
1578;DHT22;57623;53.608;10.004;2023-07-02T12:40:19;19.90;99.90
1578;DHT22;57623;53.608;10.004;2023-07-02T12:42:47;20.00;99.90
1578;DHT22;57623;53.608;10.004;2023-07-02T12:45:16;20.20;99.90
1578;DHT22;57623;53.608;10.004;2023-07-02T12:47:47;20.50;99.90
1578;DHT22;57623;53.608;10.004;2023-07-02T12:50:16;20.70;99.90
1578;DHT22;57623;53.608;10.004;2023-07-02T12:52:46;20.80;99.90
1578;DHT22;57623;53.608;10.004;2023-07-02T12:55:14;20.90;99.90
1578;DHT22;57623;53.608;10.004;2023-07-02T12:57:42;21.10;99.90
1578;DHT22;57623;53.608;10.004;2023-07-02T13:00:11;21.40;99.90
1578;DHT22;57623;53.608;10.004;2023-07-02T13:02:39;21.60;99.90
1578;DHT22;57623;53.608;10.004;2023-07-02T13:05:27;21.70;99.90
1578;DHT22;57623;53.608;10.004;2023-07-02T13:07:56;21.70;99.90
1578;DHT22;57623;53.608;10.004;2023-07-02T13:10:24;21.70;99.90
1578;DHT22;57623;53.608;10.004;2023-07-02T13:12:52;21.70;99.90
1578;DHT22;57623;53.608;10.004;2023-07-02T13:15:27;21.70;99.90
1578;DHT22;57623;53.608;10.004;2023-07-02T13:17:55;21.70;99.90
1578;DHT22;57623;53.608;10.004;2023-07-02T13:20:23;21.80;99.90
1578;DHT22;57623;53.608;10.004;2023-07-02T13:22:51;22.00;99.90
1578;DHT22;57623;53.608;10.004;2023-07-02T13:25:20;22.10;99.90
1578;DHT22;57623;53.608;10.004;2023-07-02T13:27:48;22.30;99.90
1578;DHT22;57623;53.608;10.004;2023-07-02T13:30:16;22.40;97.20
1578;DHT22;57623;53.608;10.004;2023-07-02T13:32:44;22.40;91.00
1578;DHT22;57623;53.608;10.004;2023-07-02T13:35:12;22.40;88.70
1578;DHT22;57623;53.608;10.004;2023-07-02T13:37:40;22.50;90.00
1578;DHT22;57623;53.608;10.004;2023-07-02T13:40:09;22.50;92.10
1578;DHT22;57623;53.608;10.004;2023-07-02T13:42:40;22.70;92.80
1578;DHT22;57623;53.608;10.004;2023-07-02T13:45:09;23.00;93.00
1578;DHT22;57623;53.608;10.004;2023-07-02T13:47:37;23.10;82.60
1578;DHT22;57623;53.608;10.004;2023-07-02T13:50:06;23.10;80.40
1578;DHT22;57623;53.608;10.004;2023-07-02T13:52:34;23.10;82.00
1578;DHT22;57623;53.608;10.004;2023-07-02T13:55:02;23.20;78.60
1578;DHT22;57623;53.608;10.004;2023-07-02T13:57:30;23.40;77.20
1578;DHT22;57623;53.608;10.004;2023-07-02T14:00:00;23.50;76.30
1578;DHT22;57623;53.608;10.004;2023-07-02T14:02:28;23.50;72.20
1578;DHT22;57623;53.608;10.004;2023-07-02T14:04:58;23.40;75.10
1578;DHT22;57623;53.608;10.004;2023-07-02T14:07:27;23.40;82.50
1578;DHT22;57623;53.608;10.004;2023-07-02T14:09:55;23.50;80.70
1578;DHT22;57623;53.608;10.004;2023-07-02T14:12:23;23.60;79.50
1578;DHT22;57623;53.608;10.004;2023-07-02T14:14:51;23.60;78.40
1578;DHT22;57623;53.608;10.004;2023-07-02T14:17:20;23.50;80.30
1578;DHT22;57623;53.608;10.004;2023-07-02T14:19:52;23.40;81.70
1578;DHT22;57623;53.608;10.004;2023-07-02T14:22:20;23.20;82.50
1578;DHT22;57623;53.608;10.004;2023-07-02T14:24:48;23.30;79.40
1578;DHT22;57623;53.608;10.004;2023-07-02T14:27:16;23.30;79.20
1578;DHT22;57623;53.608;10.004;2023-07-02T14:29:44;23.20;76.80
1578;DHT22;57623;53.608;10.004;2023-07-02T14:32:14;22.80;74.90
1578;DHT22;57623;53.608;10.004;2023-07-02T14:34:43;22.40;82.60
1578;DHT22;57623;53.608;10.004;2023-07-02T14:37:11;22.20;84.90
1578;DHT22;57623;53.608;10.004;2023-07-02T14:39:40;22.20;94.40
1578;DHT22;57623;53.608;10.004;2023-07-02T14:42:27;22.00;85.40
1578;DHT22;57623;53.608;10.004;2023-07-02T14:44:55;22.00;90.90
1578;DHT22;57623;53.608;10.004;2023-07-02T14:47:23;22.30;92.00
1578;DHT22;57623;53.608;10.004;2023-07-02T14:49:52;22.60;90.10
1578;DHT22;57623;53.608;10.004;2023-07-02T14:52:20;22.70;84.40
1578;DHT22;57623;53.608;10.004;2023-07-02T14:54:48;22.70;89.90
1578;DHT22;57623;53.608;10.004;2023-07-02T14:57:16;22.30;87.20
1578;DHT22;57623;53.608;10.004;2023-07-02T14:59:46;22.00;94.20
1578;DHT22;57623;53.608;10.004;2023-07-02T15:02:16;21.90;94.50
1578;DHT22;57623;53.608;10.004;2023-07-02T15:04:44;21.90;99.90
1578;DHT22;57623;53.608;10.004;2023-07-02T15:07:13;22.10;97.90
1578;DHT22;57623;53.608;10.004;2023-07-02T15:09:41;22.50;99.90
1578;DHT22;57623;53.608;10.004;2023-07-02T15:12:09;22.80;97.50
1578;DHT22;57623;53.608;10.004;2023-07-02T15:14:37;22.80;95.60
1578;DHT22;57623;53.608;10.004;2023-07-02T15:17:05;22.50;92.50
1578;DHT22;57623;53.608;10.004;2023-07-02T15:19:33;22.30;92.70
1578;DHT22;57623;53.608;10.004;2023-07-02T15:22:02;22.00;95.30
1578;DHT22;57623;53.608;10.004;2023-07-02T15:24:31;21.70;94.80
1578;DHT22;57623;53.608;10.004;2023-07-02T15:27:02;21.50;93.90
1578;DHT22;57623;53.608;10.004;2023-07-02T15:29:31;21.30;99.90
1578;DHT22;57623;53.608;10.004;2023-07-02T15:31:58;21.10;99.90
1578;DHT22;57623;53.608;10.004;2023-07-02T15:34:27;21.10;99.00
1578;DHT22;57623;53.608;10.004;2023-07-02T15:36:54;21.30;99.90
1578;DHT22;57623;53.608;10.004;2023-07-02T15:39:22;21.40;99.90